Time;durP1;ratioP1;P1;durP2;ratioP2;P2;SDS_P1;SDS_P2;PMS_P1;PMS_P2;Temp;Humidity;BMP_temperature;BMP_pressure;BME280_temperature;BME280_humidity;BME280_pressure;Samples;Min_cycle;Max_cycle;Signal;HPM_P1;HPM_P2
2022/07/19 00:01:37;;;;;;;10.77;8.52;;;;;;;22.07;57.39;101766.75;5027790;28;20354;-76
2022/07/19 00:04:02;;;;;;;12.07;8.75;;;;;;;22.09;57.53;101762.13;5029093;28;20104;-76
2022/07/19 00:06:28;;;;;;;12.38;8.57;;;;;;;22.11;57.27;101757.53;5023038;28;20052;-76
2022/07/19 00:08:53;;;;;;;10.98;8.40;;;;;;;21.99;58.30;101753.63;5011162;28;20044;-76
2022/07/19 00:11:18;;;;;;;10.95;8.25;;;;;;;22.08;58.24;101749.94;5022149;28;20028;-76
2022/07/19 00:13:44;;;;;;;10.25;8.57;;;;;;;22.04;58.43;101746.00;5028158;28;20039;-76
2022/07/19 00:16:09;;;;;;;12.73;8.75;;;;;;;22.04;59.08;101745.19;5022984;28;20370;-76
2022/07/19 00:18:34;;;;;;;11.32;8.77;;;;;;;22.01;59.55;101741.88;5027766;28;20490;-76
2022/07/19 00:21:00;;;;;;;12.77;9.00;;;;;;;21.97;60.34;101742.44;5026371;28;20025;-76
2022/07/19 00:23:25;;;;;;;12.35;8.27;;;;;;;21.97;59.65;101747.72;5027302;28;20029;-76
2022/07/19 00:25:50;;;;;;;12.63;8.70;;;;;;;21.91;60.05;101735.22;5018422;28;20100;-76
2022/07/19 00:28:16;;;;;;;13.23;8.07;;;;;;;21.90;60.25;101728.25;5026842;28;20029;-76
2022/07/19 00:30:41;;;;;;;12.48;8.32;;;;;;;21.90;60.31;101736.19;5027635;28;20548;-75
2022/07/19 00:33:09;;;;;;;12.23;8.90;;;;;;;21.80;60.23;101733.00;5024231;28;20021;-76
2022/07/19 00:35:38;;;;;;;;;;;;;;;22.12;58.03;101735.38;5023192;28;20488;-76
2022/07/19 00:38:14;;;;;;;12.10;8.20;;;;;;;21.74;60.76;101740.63;5016409;28;19916;-76
2022/07/19 00:40:41;;;;;;;11.27;8.32;;;;;;;21.68;60.57;101733.41;5014557;28;20030;-76
2022/07/19 00:43:08;;;;;;;10.77;7.88;;;;;;;21.65;60.75;101739.03;5008036;28;20045;-76
2022/07/19 00:45:34;;;;;;;11.57;8.00;;;;;;;21.63;59.96;101738.38;5007390;28;20414;-75
2022/07/19 00:47:59;;;;;;;8.65;7.55;;;;;;;21.60;59.81;101722.88;5025978;28;20545;-76
2022/07/19 00:50:25;;;;;;;9.35;7.43;;;;;;;21.59;60.13;101739.72;5024061;28;20466;-76
2022/07/19 00:52:55;;;;;;;11.00;7.53;;;;;;;21.53;60.08;101740.44;5025224;28;20029;-76
2022/07/19 00:55:22;;;;;;;9.77;7.88;;;;;;;21.47;60.18;101749.03;5027659;28;20018;-76
2022/07/19 00:57:47;;;;;;;11.25;7.65;;;;;;;21.43;60.03;101731.91;5023414;28;20025;-76
2022/07/19 01:00:14;;;;;;;10.85;7.60;;;;;;;21.35;59.50;101729.31;5026810;28;20029;-76
2022/07/19 01:02:40;;;;;;;11.82;8.07;;;;;;;21.34;59.78;101738.25;5025851;28;20554;-76
2022/07/19 01:05:07;;;;;;;9.93;7.47;;;;;;;21.30;59.87;101736.94;5022830;28;20068;-76
2022/07/19 01:07:34;;;;;;;11.52;7.78;;;;;;;21.31;59.57;101743.84;5024177;28;20029;-77
2022/07/19 01:10:01;;;;;;;11.20;8.20;;;;;;;21.24;60.17;101732.31;5016355;28;20028;-76
2022/07/19 01:13:04;;;;;;;11.40;7.97;;;;;;;21.24;59.71;101742.88;5018898;28;20124;-76
2022/07/19 01:15:32;;;;;;;12.45;7.95;;;;;;;20.87;60.46;101710.06;5050067;22;20099;-84
2022/07/19 01:17:57;;;;;;;9.55;8.05;;;;;;;21.04;60.75;101735.38;5024087;28;20133;-83
2022/07/19 01:20:26;;;;;;;10.63;8.30;;;;;;;20.95;60.50;101739.88;5031320;28;20523;-84
2022/07/19 01:22:52;;;;;;;12.98;8.30;;;;;;;20.99;61.02;101742.16;5028332;28;20041;-85
2022/07/19 01:25:18;;;;;;;10.77;8.40;;;;;;;20.98;61.04;101749.25;5027377;28;20040;-82
2022/07/19 01:28:07;;;;;;;11.00;7.97;;;;;;;20.92;61.48;101740.19;5034762;28;20021;-84
2022/07/19 01:30:37;;;;;;;9.57;7.55;;;;;;;20.65;61.77;101707.19;5014528;28;20045;-85
2022/07/19 01:33:14;;;;;;;8.95;7.75;;;;;;;20.71;62.82;101716.22;5029231;28;20025;-84
2022/07/19 01:35:42;;;;;;;9.85;8.00;;;;;;;20.68;62.55;101696.28;5019704;28;20476;-90
2022/07/19 01:38:07;;;;;;;9.20;7.60;;;;;;;20.91;62.07;101743.00;5012531;28;20041;-84
2022/07/19 01:40:33;;;;;;;10.60;7.90;;;;;;;20.78;63.22;101730.38;5009709;28;20036;-84
2022/07/19 01:42:59;;;;;;;8.90;7.95;;;;;;;20.75;63.86;101743.06;5007407;28;20022;-85
2022/07/19 01:45:26;;;;;;;12.05;7.65;;;;;;;20.72;64.01;101738.97;5000964;28;20057;-82
2022/07/19 01:47:51;;;;;;;11.40;7.88;;;;;;;20.71;64.11;101741.78;5009481;28;20049;-82
2022/07/19 01:50:18;;;;;;;11.68;8.40;;;;;;;20.64;64.15;101723.16;5010951;28;20473;-82
2022/07/19 01:52:44;;;;;;;11.13;8.20;;;;;;;20.67;64.40;101731.56;5002757;28;20546;-82
2022/07/19 01:55:10;;;;;;;9.55;8.27;;;;;;;20.66;64.33;101724.66;5002860;28;20043;-81
2022/07/19 01:57:35;;;;;;;9.73;8.23;;;;;;;20.68;64.87;101727.91;5020617;28;20029;-82
2022/07/19 02:00:01;;;;;;;12.07;8.30;;;;;;;20.66;65.52;101734.38;5013091;28;20440;-82
2022/07/19 02:02:27;;;;;;;11.82;8.35;;;;;;;20.59;65.77;101731.59;5027691;28;20029;-82
2022/07/19 02:04:52;;;;;;;11.05;8.30;;;;;;;20.55;65.72;101724.19;5011655;28;20372;-83
2022/07/19 02:07:18;;;;;;;9.30;8.10;;;;;;;20.54;66.52;101731.28;5013851;28;20085;-83
2022/07/19 02:09:43;;;;;;;12.10;7.95;;;;;;;20.51;65.93;101725.50;5008159;28;20057;-88
2022/07/19 02:12:09;;;;;;;11.65;8.55;;;;;;;20.62;65.60;101727.78;5005429;28;20088;-83
2022/07/19 02:14:34;;;;;;;10.65;8.40;;;;;;;20.54;65.59;101720.72;5013021;28;20049;-83
2022/07/19 02:17:00;;;;;;;11.02;9.00;;;;;;;20.48;64.85;101713.50;5026342;28;20476;-83
2022/07/19 02:19:25;;;;;;;12.18;8.73;;;;;;;20.53;64.43;101719.09;5026030;28;20021;-83
2022/07/19 02:21:50;;;;;;;11.73;8.70;;;;;;;20.48;64.15;101712.69;5013558;28;20040;-83
2022/07/19 02:24:16;;;;;;;11.15;8.15;;;;;;;20.45;64.43;101721.69;5019132;28;20085;-83
2022/07/19 02:26:42;;;;;;;10.40;8.77;;;;;;;20.41;64.45;101715.09;5008901;28;20487;-83
2022/07/19 02:29:07;;;;;;;11.68;8.90;;;;;;;20.44;64.30;101706.88;5008070;28;20384;-84
2022/07/19 02:31:33;;;;;;;11.43;9.05;;;;;;;20.40;64.36;101698.47;5019564;28;20036;-89
2022/07/19 02:33:59;;;;;;;12.02;8.93;;;;;;;20.33;65.26;101700.16;5022305;28;20029;-86
2022/07/19 02:36:25;;;;;;;11.73;8.48;;;;;;;20.34;65.82;101699.16;5006902;28;20736;-87
2022/07/19 02:38:50;;;;;;;11.63;8.88;;;;;;;20.38;66.09;101699.66;5021821;28;20025;-88
2022/07/19 02:41:17;;;;;;;11.10;8.73;;;;;;;20.27;66.07;101702.63;5029576;28;20026;-88
2022/07/19 02:43:43;;;;;;;9.80;8.80;;;;;;;20.27;65.46;101700.00;5024990;28;20029;-88
2022/07/19 02:46:08;;;;;;;10.40;8.95;;;;;;;20.28;65.48;101705.09;5025414;28;20482;-89
2022/07/19 02:48:37;;;;;;;11.18;8.55;;;;;;;20.28;65.33;101702.47;5033474;28;20043;-89
2022/07/19 02:51:02;;;;;;;11.07;9.10;;;;;;;20.16;65.72;101691.44;5013904;28;20022;-88
2022/07/19 02:53:28;;;;;;;9.63;8.63;;;;;;;20.23;65.86;101693.41;5019501;28;20037;-89
2022/07/19 02:55:53;;;;;;;8.85;7.95;;;;;;;20.21;65.45;101687.50;5017698;28;20033;-85
2022/07/19 02:58:19;;;;;;;10.52;8.82;;;;;;;20.19;65.29;101684.22;5037679;28;20041;-88
2022/07/19 03:00:44;;;;;;;11.65;9.30;;;;;;;20.07;65.10;101684.56;5024012;28;20067;-89
2022/07/19 03:05:55;;;;;;;9.95;8.93;;;;;;;20.12;64.51;101687.50;5030119;28;20125;-88
2022/07/19 03:08:20;;;;;;;10.43;8.90;;;;;;;20.07;64.63;101687.19;5014277;28;20083;-88
2022/07/19 03:10:45;;;;;;;9.93;8.90;;;;;;;20.05;65.22;101681.25;5025784;28;20056;-83
2022/07/19 03:13:11;;;;;;;10.88;8.73;;;;;;;20.02;65.44;101684.22;5012753;28;20053;-83
2022/07/19 03:15:37;;;;;;;10.20;9.13;;;;;;;20.01;65.16;101697.53;5028140;28;20072;-83
2022/07/19 03:18:03;;;;;;;12.40;9.27;;;;;;;19.94;64.39;101689.50;5028645;28;20472;-83
2022/07/19 03:20:30;;;;;;;10.30;9.18;;;;;;;19.90;65.17;101680.31;5017126;28;20037;-83
2022/07/19 03:22:55;;;;;;;10.10;8.98;;;;;;;19.89;64.28;101678.63;5007616;28;20064;-83
2022/07/19 03:25:22;;;;;;;11.30;9.85;;;;;;;19.90;63.75;101677.66;5014808;28;20073;-83
2022/07/19 03:27:48;;;;;;;12.27;9.55;;;;;;;19.95;64.16;101685.88;4996693;28;20137;-83
2022/07/19 03:30:14;;;;;;;11.65;9.57;;;;;;;19.83;64.66;101674.84;5020324;28;20022;-83
2022/07/19 03:32:39;;;;;;;10.63;9.43;;;;;;;19.78;64.73;101681.59;5029584;28;20111;-83
2022/07/19 03:35:05;;;;;;;11.32;9.18;;;;;;;19.75;65.38;101674.03;5021251;28;20061;-83
2022/07/19 03:37:30;;;;;;;10.90;9.80;;;;;;;19.58;66.33;101654.75;5028039;28;20021;-83
2022/07/19 03:39:56;;;;;;;11.30;9.80;;;;;;;19.70;66.30;101674.53;5041968;28;20072;-83
2022/07/19 03:42:21;;;;;;;11.85;9.70;;;;;;;19.76;66.64;101694.09;5028940;28;20032;-83
2022/07/19 03:44:46;;;;;;;11.77;9.57;;;;;;;19.62;67.71;101672.72;5012218;28;20025;-83
2022/07/19 03:47:12;;;;;;;11.82;10.63;;;;;;;19.60;68.99;101685.19;5019101;28;20014;-83
2022/07/19 03:49:37;;;;;;;12.23;10.55;;;;;;;19.53;69.36;101678.91;5024182;28;20029;-83
2022/07/19 03:52:02;;;;;;;11.73;10.52;;;;;;;19.61;69.13;101676.34;5028692;28;20079;-83
2022/07/19 03:54:28;;;;;;;12.20;11.00;;;;;;;19.62;69.56;101672.72;5029269;28;20481;-83
2022/07/19 03:56:55;;;;;;;13.38;11.18;;;;;;;19.65;69.82;101684.72;5013273;28;20025;-83
2022/07/19 03:59:22;;;;;;;13.50;11.73;;;;;;;19.63;69.82;101679.63;5013456;28;20022;-83
2022/07/19 04:01:48;;;;;;;11.52;10.43;;;;;;;19.70;69.13;101684.22;5028504;28;20048;-83
2022/07/19 04:04:13;;;;;;;12.43;11.05;;;;;;;19.63;69.15;101669.09;5028763;28;20119;-83
2022/07/19 04:06:39;;;;;;;11.63;10.48;;;;;;;19.61;68.83;101681.59;5024928;28;20029;-83
2022/07/19 04:09:04;;;;;;;12.43;10.55;;;;;;;19.62;68.83;101677.97;5019791;28;20025;-83
2022/07/19 04:11:29;;;;;;;11.48;10.25;;;;;;;19.66;68.81;101682.91;5029177;28;20136;-83
2022/07/19 04:13:55;;;;;;;11.30;10.15;;;;;;;19.58;68.93;101681.06;5027724;28;20560;-82
2022/07/19 04:16:20;;;;;;;12.00;10.60;;;;;;;19.58;68.79;101676.66;5005802;28;20409;-82
2022/07/19 04:18:45;;;;;;;12.13;10.60;;;;;;;19.59;69.01;101683.56;5022927;28;20018;-84
2022/07/19 04:21:11;;;;;;;11.48;10.25;;;;;;;19.60;69.19;101674.69;5000061;28;20038;-82
2022/07/19 04:23:36;;;;;;;12.07;9.98;;;;;;;19.51;69.48;101665.13;5027391;28;20525;-82
2022/07/19 04:26:01;;;;;;;11.07;9.80;;;;;;;19.60;69.40;101674.69;5009423;28;20044;-82
2022/07/19 04:28:27;;;;;;;12.07;10.13;;;;;;;19.54;68.72;101675.31;5035718;28;20044;-82
2022/07/19 04:30:52;;;;;;;11.25;10.05;;;;;;;19.68;68.25;101680.94;5033672;28;20028;-82
2022/07/19 04:33:18;;;;;;;10.90;9.57;;;;;;;19.68;68.07;101680.94;5028408;28;20021;-83
2022/07/19 04:35:45;;;;;;;12.20;10.07;;;;;;;19.72;68.42;101688.34;5019547;28;20014;-82
2022/07/19 04:38:10;;;;;;;11.52;10.00;;;;;;;19.78;68.31;101686.84;5010087;28;20044;-82
2022/07/19 04:40:36;;;;;;;14.57;9.82;;;;;;;19.81;68.23;101681.28;5019939;28;20020;-81
2022/07/19 04:43:02;;;;;;;11.45;10.25;;;;;;;19.81;68.15;101682.09;5014804;28;20053;-83
2022/07/19 04:45:27;;;;;;;11.25;9.75;;;;;;;19.76;68.39;101679.13;5011701;28;20722;-83
2022/07/19 04:47:53;;;;;;;10.90;9.77;;;;;;;19.80;67.85;101679.63;5012581;28;20022;-84
2022/07/19 04:50:18;;;;;;;13.10;10.32;;;;;;;19.84;67.60;101689.69;5026052;28;20025;-83
2022/07/19 04:52:43;;;;;;;12.85;10.35;;;;;;;19.81;67.09;101692.63;5025915;28;20458;-83
2022/07/19 04:55:09;;;;;;;11.88;10.68;;;;;;;19.85;66.68;101693.13;5032104;28;20461;-83
2022/07/19 04:57:35;;;;;;;11.70;10.30;;;;;;;19.78;66.92;101686.84;5033956;28;20157;-83
2022/07/19 05:00:00;;;;;;;12.05;10.95;;;;;;;19.80;67.13;101690.16;5016170;28;20139;-83
2022/07/19 05:02:26;;;;;;;12.95;10.63;;;;;;;19.75;67.28;101687.19;5026040;28;20025;-83
2022/07/19 05:04:51;;;;;;;11.40;10.30;;;;;;;19.86;67.24;101685.06;5009281;28;20637;-83
2022/07/19 05:07:16;;;;;;;11.63;10.52;;;;;;;19.90;67.10;101690.81;5026589;28;20079;-82
2022/07/19 05:09:42;;;;;;;12.00;10.80;;;;;;;19.90;67.61;101690.81;5006689;28;20041;-83
2022/07/19 05:12:09;;;;;;;15.32;10.48;;;;;;;20.00;67.84;101701.16;5025694;28;20021;-82
2022/07/19 05:14:34;;;;;;;12.13;10.93;;;;;;;19.95;67.77;101683.22;5025674;28;20049;-82
2022/07/19 05:17:00;;;;;;;16.83;11.00;;;;;;;20.02;67.96;101694.78;5011680;28;20479;-82
2022/07/19 05:19:25;;;;;;;12.05;10.50;;;;;;;20.02;67.40;101686.88;5015257;28;20194;-84
2022/07/19 05:21:51;;;;;;;12.93;10.43;;;;;;;20.10;67.10;101686.84;5024528;28;20465;-83
2022/07/19 05:24:16;;;;;;;12.20;10.77;;;;;;;20.11;67.92;101688.50;5023213;28;20029;-82
2022/07/19 05:26:41;;;;;;;12.32;10.93;;;;;;;20.14;67.50;101682.91;5011346;28;20030;-83
2022/07/19 05:29:07;;;;;;;12.05;10.85;;;;;;;20.27;67.22;101686.81;5019907;28;20039;-83
2022/07/19 05:31:33;;;;;;;13.38;10.52;;;;;;;20.34;67.02;101690.44;5002095;28;20196;-82
2022/07/19 05:33:58;;;;;;;11.95;10.43;;;;;;;20.36;66.91;101680.56;5027473;28;20461;-83
2022/07/19 05:36:23;;;;;;;12.02;10.40;;;;;;;20.36;67.47;101683.19;5021774;28;20026;-83
2022/07/19 05:38:49;;;;;;;13.20;10.00;;;;;;;20.48;66.48;101684.50;5029627;28;20121;-83
2022/07/19 05:41:16;;;;;;;12.75;10.32;;;;;;;20.54;67.33;101683.84;5010304;28;20029;-83
2022/07/19 05:43:41;;;;;;;14.65;10.32;;;;;;;20.57;66.88;101672.94;5005004;28;20029;-82
2022/07/19 05:46:07;;;;;;;12.18;10.35;;;;;;;20.74;66.26;101691.31;5016771;28;20173;-82
2022/07/19 05:48:32;;;;;;;13.43;10.65;;;;;;;20.77;65.18;101688.38;5016816;28;20033;-83
2022/07/19 05:50:58;;;;;;;11.30;10.10;;;;;;;20.87;65.08;101696.88;5016660;28;20056;-83
2022/07/19 05:53:25;;;;;;;13.45;10.20;;;;;;;20.91;64.89;101685.00;5019062;28;20033;-83
2022/07/19 05:55:50;;;;;;;14.45;10.10;;;;;;;20.97;64.52;101681.66;5019156;28;20502;-83
2022/07/19 05:58:17;;;;;;;13.50;10.82;;;;;;;20.99;64.33;101682.34;5024064;28;20452;-83
2022/07/19 06:01:17;;;;;;;11.97;9.77;;;;;;;21.05;64.49;101689.56;5002791;28;20053;-83
2022/07/19 06:03:29;;;;;;;13.98;10.70;;;;;;;21.16;64.13;101685.69;5017078;28;20064;-83
2022/07/19 06:05:54;;;;;;;11.82;9.82;;;;;;;21.25;64.13;101686.47;5001018;28;20132;-83
2022/07/19 06:08:19;;;;;;;14.07;10.57;;;;;;;21.28;63.75;101672.94;5033232;28;20033;-83
2022/07/19 06:10:45;;;;;;;14.05;10.57;;;;;;;21.39;63.30;101689.22;5019468;28;20022;-82
2022/07/19 06:13:10;;;;;;;11.80;10.13;;;;;;;21.46;63.22;101684.06;5028230;28;20544;-83
2022/07/19 06:15:35;;;;;;;14.27;10.48;;;;;;;21.54;62.42;101681.34;5012464;28;20054;-83
2022/07/19 06:18:01;;;;;;;16.10;10.20;;;;;;;21.63;61.67;101680.31;5028811;28;20104;-83
2022/07/19 06:20:26;;;;;;;12.35;9.85;;;;;;;21.72;61.79;101684.50;5023344;28;20025;-83
2022/07/19 06:22:51;;;;;;;12.25;9.60;;;;;;;21.81;62.33;101681.81;5021655;28;20416;-83
2022/07/19 06:25:17;;;;;;;13.63;9.68;;;;;;;21.90;61.48;101686.00;5008680;28;20030;-83
2022/07/19 06:27:42;;;;;;;11.02;8.60;;;;;;;21.99;61.43;101677.03;5026073;28;20029;-84
2022/07/19 06:30:08;;;;;;;12.48;8.90;;;;;;;22.08;61.48;101678.59;5023582;28;20049;-83
2022/07/19 06:32:33;;;;;;;13.10;8.27;;;;;;;22.11;61.63;101672.97;5014851;28;20040;-83
2022/07/19 06:34:58;;;;;;;11.98;8.60;;;;;;;22.22;60.50;101683.09;5032076;28;20461;-83
2022/07/19 06:37:24;;;;;;;12.80;8.73;;;;;;;22.34;59.70;101685.28;5026884;28;20474;-83
2022/07/19 06:39:49;;;;;;;12.48;8.13;;;;;;;22.39;59.61;101675.00;5023519;28;20029;-83
2022/07/19 06:42:14;;;;;;;10.68;8.80;;;;;;;22.46;60.32;101670.63;4991791;28;20029;-83
2022/07/19 06:44:40;;;;;;;13.68;9.45;;;;;;;22.54;58.71;101667.91;5021126;28;20104;-83
2022/07/19 06:47:05;;;;;;;13.63;10.00;;;;;;;22.64;57.53;101673.69;5011210;28;20130;-83
2022/07/19 06:49:30;;;;;;;13.75;9.52;;;;;;;22.71;57.26;101669.34;5025595;28;20033;-83
2022/07/19 06:51:56;;;;;;;11.98;8.55;;;;;;;22.90;57.02;101677.72;5026443;28;20024;-83
2022/07/19 06:54:21;;;;;;;15.32;9.15;;;;;;;23.00;56.62;101667.69;5026698;28;20387;-83
2022/07/19 06:56:46;;;;;;;13.40;8.88;;;;;;;23.14;56.05;101684.50;5015341;28;20025;-85
2022/07/19 06:59:12;;;;;;;14.50;9.35;;;;;;;23.18;55.27;101677.84;5024936;28;20380;-85
2022/07/19 07:01:37;;;;;;;13.23;8.23;;;;;;;23.28;54.65;101681.81;5018786;28;20358;-84
2022/07/19 07:04:03;;;;;;;14.48;7.80;;;;;;;23.32;54.38;101675.13;5017408;28;20074;-85
2022/07/19 07:06:28;;;;;;;12.27;7.70;;;;;;;23.52;53.91;101682.47;5004032;28;20168;-85
2022/07/19 07:08:53;;;;;;;12.73;8.18;;;;;;;23.66;53.42;101678.94;5011736;28;20632;-85
2022/07/19 07:11:19;;;;;;;12.70;7.57;;;;;;;23.67;52.72;101680.56;4996327;28;20025;-85
2022/07/19 07:13:44;;;;;;;12.25;7.68;;;;;;;23.76;52.69;101684.72;5020198;28;20025;-85
2022/07/19 07:16:09;;;;;;;14.15;7.90;;;;;;;23.79;52.87;101676.38;5012932;28;20050;-85
2022/07/19 07:18:35;;;;;;;12.38;7.45;;;;;;;23.78;53.76;101658.84;5009163;28;20025;-85
2022/07/19 07:21:00;;;;;;;13.63;7.43;;;;;;;24.01;52.27;101676.34;5001650;28;20116;-85
2022/07/19 07:23:25;;;;;;;12.23;7.20;;;;;;;24.05;52.89;101670.47;5024444;28;20447;-86
2022/07/19 07:25:53;;;;;;;11.75;7.65;;;;;;;24.14;52.52;101676.44;5008627;28;20040;-85
2022/07/19 07:28:19;;;;;;;11.65;7.47;;;;;;;24.21;52.37;101672.03;5002689;28;20017;-85
2022/07/19 07:30:44;;;;;;;9.85;6.75;;;;;;;24.35;51.99;101672.94;5015716;28;20084;-85
2022/07/19 07:33:10;;;;;;;12.35;7.53;;;;;;;24.49;52.56;101663.25;5023625;28;20017;-85
2022/07/19 07:35:35;;;;;;;11.75;7.18;;;;;;;24.54;52.50;101660.78;5021565;28;20404;-85
2022/07/19 07:38:00;;;;;;;11.50;7.03;;;;;;;24.73;52.70;101665.38;5005789;28;20068;-85
2022/07/19 07:40:26;;;;;;;11.45;6.93;;;;;;;24.76;53.88;101664.97;5023087;28;20058;-85
2022/07/19 07:42:51;;;;;;;11.73;7.50;;;;;;;25.00;52.07;101660.97;5022913;28;20063;-85
2022/07/19 07:45:16;;;;;;;13.15;6.60;;;;;;;25.10;52.41;101650.00;5017159;28;20390;-85
2022/07/19 07:47:42;;;;;;;9.95;6.65;;;;;;;25.19;51.47;101659.41;5013075;28;20052;-85
2022/07/19 07:50:08;;;;;;;10.18;6.32;;;;;;;25.17;51.59;101656.13;5028513;28;20056;-85
2022/07/19 07:52:34;;;;;;;11.35;6.57;;;;;;;25.34;51.16;101662.69;5025049;28;20029;-85
2022/07/19 07:54:59;;;;;;;11.10;7.28;;;;;;;25.45;49.92;101658.63;5011430;28;20031;-85
2022/07/19 07:57:24;;;;;;;12.30;7.28;;;;;;;25.54;47.65;101657.41;5019664;28;20482;-85
2022/07/19 07:59:50;;;;;;;12.20;6.78;;;;;;;25.70;46.52;101661.50;5023178;28;20389;-84
2022/07/19 08:02:15;;;;;;;12.13;7.38;;;;;;;25.78;45.10;101663.97;5019093;28;20032;-85
2022/07/19 08:04:40;;;;;;;11.40;6.47;;;;;;;25.89;45.72;101660.69;4997694;28;20408;-85
2022/07/19 08:07:06;;;;;;;11.77;6.85;;;;;;;25.99;44.76;101656.81;5017445;28;20029;-85
2022/07/19 08:09:32;;;;;;;11.55;6.65;;;;;;;26.08;45.84;101650.25;5017085;28;20026;-86
2022/07/19 08:11:57;;;;;;;11.02;6.40;;;;;;;26.26;46.30;101666.34;5005581;28;20030;-85
2022/07/19 08:14:22;;;;;;;9.82;6.35;;;;;;;26.37;46.76;101652.41;5017705;28;20084;-85
2022/07/19 08:16:48;;;;;;;12.27;6.88;;;;;;;26.56;44.55;101668.56;5019277;28;20035;-85
2022/07/19 08:19:13;;;;;;;9.95;6.78;;;;;;;26.64;44.04;101663.00;5008886;28;20117;-85
2022/07/19 08:21:39;;;;;;;13.23;6.55;;;;;;;26.78;44.61;101664.56;4995204;28;20017;-85
2022/07/19 08:24:04;;;;;;;11.60;6.88;;;;;;;26.87;45.75;101663.28;5028618;28;20026;-85
2022/07/19 08:26:31;;;;;;;12.65;6.80;;;;;;;26.97;44.59;101658.31;5015810;28;20027;-86
2022/07/19 08:28:56;;;;;;;9.73;5.88;;;;;;;26.97;45.01;101658.31;5010829;28;20044;-85
2022/07/19 08:31:22;;;;;;;10.15;6.63;;;;;;;27.13;45.93;101661.56;5010452;28;20057;-85
2022/07/19 08:33:47;;;;;;;8.93;6.20;;;;;;;27.18;44.85;101653.72;5030843;28;20028;-86
2022/07/19 08:36:15;;;;;;;10.45;5.90;;;;;;;27.23;46.12;101636.06;5019313;28;20664;-85
2022/07/19 08:38:41;;;;;;;;;;;;;;;27.49;46.92;101667.03;5012776;28;20068;-85
2022/07/19 08:41:07;;;;;;;8.52;5.30;;;;;;;27.68;42.93;101659.06;5010759;28;20405;-85
2022/07/19 08:43:33;;;;;;;9.20;5.15;;;;;;;27.79;44.34;101658.41;5028806;28;20457;-85
2022/07/19 08:46:03;;;;;;;9.65;4.60;;;;;;;27.88;43.89;101665.09;5009804;28;20033;-85
2022/07/19 08:48:36;;;;;;;7.80;4.18;;;;;;;27.96;43.51;101646.13;5040471;28;20409;-85
2022/07/19 08:51:04;;;;;;;11.13;4.13;;;;;;;28.05;41.75;101649.34;5027506;28;20029;-85
2022/07/19 08:53:31;;;;;;;8.85;4.18;;;;;;;28.31;43.02;101658.88;5028140;28;20029;-85
2022/07/19 08:55:56;;;;;;;8.50;4.13;;;;;;;28.27;41.13;101652.34;5023834;28;20410;-85
2022/07/19 08:58:22;;;;;;;8.52;3.92;;;;;;;28.31;42.08;101648.22;5024333;28;20534;-85
2022/07/19 09:00:47;;;;;;;9.57;3.83;;;;;;;28.53;40.62;101643.28;5027323;28;20508;-85
2022/07/19 09:03:12;;;;;;;7.65;3.90;;;;;;;28.74;41.66;101644.66;5012475;28;20280;-86
2022/07/19 09:05:38;;;;;;;7.22;3.83;;;;;;;28.74;38.99;101628.63;5004663;28;20404;-86
2022/07/19 09:08:11;;;;;;;10.10;3.88;;;;;;;28.74;39.45;101637.47;4995446;28;20026;-85
2022/07/19 09:13:49;;;;;;;9.60;3.72;;;;;;;29.16;38.50;101634.00;4981586;28;20069;-85
2022/07/19 09:16:14;;;;;;;11.23;3.80;;;;;;;29.09;39.88;101616.22;5017483;28;20029;-85
2022/07/19 09:18:39;;;;;;;6.68;3.50;;;;;;;29.38;38.41;101637.78;5025781;28;20029;-86
2022/07/19 09:21:06;;;;;;;8.93;3.70;;;;;;;29.51;37.91;101621.50;4993988;28;20306;-86
2022/07/19 09:23:33;;;;;;;8.50;3.40;;;;;;;29.55;36.23;101622.72;5006010;28;20026;-86
2022/07/19 09:26:00;;;;;;;7.87;3.40;;;;;;;29.68;36.56;101610.16;5020739;28;20029;-86
2022/07/19 09:28:29;;;;;;;7.50;3.80;;;;;;;29.68;39.24;101604.81;5009183;28;20036;-85
2022/07/19 09:30:56;;;;;;;8.20;3.50;;;;;;;29.90;40.32;101613.84;5031496;28;20291;-86
2022/07/19 09:33:24;;;;;;;7.47;3.97;;;;;;;29.91;40.92;101610.13;5009884;28;20111;-86
2022/07/19 09:35:52;;;;;;;6.93;3.47;;;;;;;30.14;41.46;101620.00;5021641;28;20388;-85
2022/07/19 09:38:29;;;;;;;9.38;3.80;;;;;;;30.11;40.86;101615.94;5025621;28;20021;-86
2022/07/19 09:41:12;;;;;;;9.20;3.90;;;;;;;30.28;40.68;101620.53;5019856;28;20029;-86
2022/07/19 09:44:05;;;;;;;7.65;3.72;;;;;;;30.46;40.27;101627.63;5020391;28;20018;-85
2022/07/19 09:46:39;;;;;;;7.10;3.63;;;;;;;30.55;39.35;101616.25;5023088;28;20087;-86
2022/07/19 09:49:09;;;;;;;8.82;3.80;;;;;;;30.56;40.04;101617.88;5002973;28;20028;-85
2022/07/19 09:51:40;;;;;;;8.20;3.75;;;;;;;30.75;39.00;101610.53;5024449;28;20017;-86
2022/07/19 09:54:07;;;;;;;6.82;3.60;;;;;;;30.69;39.51;101616.03;5008684;28;20022;-85
2022/07/19 09:56:33;;;;;;;8.07;3.57;;;;;;;30.74;38.72;101608.06;5022675;28;20120;-86
2022/07/19 09:58:59;;;;;;;7.18;3.40;;;;;;;30.86;38.88;101595.44;5027183;28;20093;-86
2022/07/19 10:01:26;;;;;;;9.10;3.50;;;;;;;30.99;37.16;101600.47;5021422;28;20136;-85
2022/07/19 10:03:54;;;;;;;10.48;3.95;;;;;;;30.91;36.83;101608.91;5023842;28;20500;-86
2022/07/19 10:06:25;;;;;;;5.85;3.00;;;;;;;30.91;38.58;101592.81;5016652;28;20059;-85
2022/07/19 10:08:50;;;;;;;7.70;3.38;;;;;;;31.13;36.68;101601.78;5016253;28;20029;-85
2022/07/19 10:11:17;;;;;;;6.22;3.60;;;;;;;31.29;36.56;101608.22;5008349;28;20056;-85
2022/07/19 10:13:44;;;;;;;7.72;3.50;;;;;;;31.44;36.78;101603.09;5010768;28;20064;-85
2022/07/19 10:16:15;;;;;;;7.55;3.60;;;;;;;31.49;37.92;101594.34;5024962;28;20136;-86
2022/07/19 10:18:54;;;;;;;6.82;3.70;;;;;;;31.65;36.17;101593.47;5016341;28;20084;-86
2022/07/19 10:21:20;;;;;;;8.05;4.10;;;;;;;31.60;35.41;101596.09;5019031;28;20022;-85
2022/07/19 10:23:52;;;;;;;8.43;3.55;;;;;;;31.51;35.76;101586.03;5024801;28;20060;-85
2022/07/19 10:26:34;;;;;;;6.45;3.60;;;;;;;31.64;36.94;101581.13;5021902;28;20372;-85
2022/07/19 10:29:11;;;;;;;7.63;3.60;;;;;;;31.84;37.47;101590.53;5006835;28;20120;-85
2022/07/19 10:31:37;;;;;;;10.35;3.33;;;;;;;32.17;36.13;101595.78;4994103;28;20030;-85
2022/07/19 10:34:10;;;;;;;7.43;3.50;;;;;;;32.13;34.40;101588.50;5017279;28;20416;-85
2022/07/19 10:36:37;;;;;;;7.57;3.63;;;;;;;32.18;35.57;101586.69;5017530;28;20060;-86
2022/07/19 10:39:21;;;;;;;10.88;3.60;;;;;;;32.18;35.69;101584.00;5015066;28;20057;-85
2022/07/19 10:42:08;;;;;;;6.85;3.25;;;;;;;32.25;35.24;101587.28;5018230;28;20029;-86
2022/07/19 10:44:35;;;;;;;6.72;3.38;;;;;;;32.15;32.91;101564.88;5020144;28;20088;-85
2022/07/19 10:47:01;;;;;;;6.43;3.43;;;;;;;32.38;34.12;101564.63;5020267;28;20051;-85
2022/07/19 10:49:46;;;;;;;7.65;3.55;;;;;;;32.44;34.74;101578.91;4997129;28;20280;-86
2022/07/19 10:52:27;;;;;;;7.35;3.00;;;;;;;32.54;35.29;101573.66;5005820;28;20164;-86
2022/07/19 10:55:17;;;;;;;7.70;3.20;;;;;;;32.72;35.20;101578.66;5028701;28;20554;-86
2022/07/19 10:58:06;;;;;;;6.10;3.50;;;;;;;32.76;34.26;101570.91;5030471;28;20063;-85
2022/07/19 11:00:44;;;;;;;7.43;3.30;;;;;;;32.86;35.26;101576.38;5012853;28;20116;-86
2022/07/19 11:03:22;;;;;;;7.90;3.25;;;;;;;32.89;33.24;101570.50;5007151;28;20026;-85
2022/07/19 11:05:53;;;;;;;6.85;3.10;;;;;;;32.87;32.13;101539.56;5019345;28;20030;-85
2022/07/19 11:08:37;;;;;;;7.05;3.45;;;;;;;33.05;33.72;101544.56;5040768;28;20020;-85
2022/07/19 11:11:07;;;;;;;7.63;3.30;;;;;;;33.26;32.42;101565.16;5025736;28;21404;-85
2022/07/19 11:13:35;;;;;;;6.00;3.05;;;;;;;33.34;30.95;101538.84;5019817;28;20076;-86
2022/07/19 11:16:05;;;;;;;8.07;3.35;;;;;;;33.67;30.35;101543.88;5006119;28;20524;-85
2022/07/19 11:18:31;;;;;;;7.35;3.00;;;;;;;33.45;30.77;101545.94;5023150;28;20471;-85
2022/07/19 11:20:58;;;;;;;5.77;2.97;;;;;;;33.72;30.07;101545.75;5014610;28;20030;-85
2022/07/19 11:23:27;;;;;;;7.60;3.00;;;;;;;33.76;29.12;101541.50;5009295;28;20056;-87
2022/07/19 11:26:08;;;;;;;6.68;3.05;;;;;;;33.91;31.15;101538.06;5000103;28;20026;-86